createdAt,value
2022-07-30T00:02:05.864Z,54.20
2022-07-30T00:04:57.058Z,54.05
2022-07-30T00:07:48.470Z,54.20
2022-07-30T00:10:39.706Z,54.08
2022-07-30T00:13:32.318Z,54.14
2022-07-30T00:16:24.928Z,54.14
2022-07-30T00:19:15.887Z,54.04
2022-07-30T00:22:06.888Z,54.10
2022-07-30T00:24:57.840Z,54.01
2022-07-30T00:27:49.060Z,53.98
2022-07-30T00:30:40.887Z,54.02
2022-07-30T00:33:31.752Z,53.86
2022-07-30T00:36:22.433Z,53.97
2022-07-30T00:39:13.652Z,53.91
2022-07-30T00:42:05.603Z,53.91
2022-07-30T00:44:56.434Z,53.71
2022-07-30T00:47:46.969Z,53.72
2022-07-30T00:50:37.242Z,53.66
2022-07-30T00:53:28.454Z,53.81
2022-07-30T00:56:20.304Z,53.95
2022-07-30T00:59:10.436Z,53.96
2022-07-30T01:02:03.773Z,53.90
2022-07-30T01:04:54.070Z,53.83
2022-07-30T01:07:44.771Z,53.90
2022-07-30T01:10:36.024Z,53.94
2022-07-30T01:13:26.873Z,53.92
2022-07-30T01:16:19.638Z,54.00
2022-07-30T01:19:32.629Z,53.86
2022-07-30T01:22:31.318Z,53.91
2022-07-30T01:25:32.471Z,53.87
2022-07-30T01:28:25.348Z,53.81
2022-07-30T01:31:17.587Z,53.75
2022-07-30T01:34:09.851Z,53.71
2022-07-30T01:37:03.625Z,53.81
2022-07-30T01:39:55.602Z,53.94
2022-07-30T01:42:49.814Z,53.93
2022-07-30T01:45:44.158Z,53.92
2022-07-30T01:48:40.681Z,53.72
2022-07-30T01:51:37.705Z,53.61
2022-07-30T01:54:32.527Z,53.34
2022-07-30T01:57:25.180Z,53.18
2022-07-30T02:00:18.177Z,53.20
2022-07-30T02:03:10.285Z,53.10
2022-07-30T02:06:06.405Z,53.13
2022-07-30T02:09:00.948Z,53.12
2022-07-30T02:12:13.588Z,53.07
2022-07-30T02:15:12.280Z,53.12
2022-07-30T02:18:09.475Z,53.00
2022-07-30T02:21:07.461Z,52.89
2022-07-30T02:23:59.656Z,52.89
2022-07-30T02:26:53.837Z,52.80
2022-07-30T02:29:47.843Z,52.79
2022-07-30T02:32:42.408Z,52.74
2022-07-30T02:35:34.536Z,52.75
2022-07-30T02:38:28.045Z,52.86
2022-07-30T02:41:20.811Z,52.78
2022-07-30T02:44:13.294Z,52.86
2022-07-30T02:47:08.995Z,52.90
2022-07-30T02:50:18.446Z,52.86
2022-07-30T02:53:11.382Z,53.01
2022-07-30T02:56:05.144Z,53.04
2022-07-30T02:58:57.444Z,53.07
2022-07-30T03:01:50.267Z,53.01
2022-07-30T03:04:42.023Z,52.98
2022-07-30T03:07:35.505Z,52.97
2022-07-30T03:10:27.037Z,52.86
2022-07-30T03:13:18.658Z,52.89
2022-07-30T03:16:12.775Z,52.80
2022-07-30T03:19:05.394Z,52.78
2022-07-30T03:21:58.415Z,52.69
2022-07-30T03:24:54.513Z,52.66
2022-07-30T03:27:47.001Z,52.59
2022-07-30T03:30:38.008Z,52.57
2022-07-30T03:33:38.228Z,52.42
2022-07-30T03:36:29.935Z,52.35
2022-07-30T03:39:23.770Z,52.23
2022-07-30T03:42:15.680Z,52.25
2022-07-30T03:45:08.226Z,52.17
2022-07-30T03:47:59.115Z,52.08
2022-07-30T03:50:51.353Z,52.03
2022-07-30T03:53:43.621Z,52.05
2022-07-30T03:56:53.643Z,52.06
2022-07-30T04:00:02.299Z,52.18
2022-07-30T04:03:03.066Z,52.14
2022-07-30T04:06:09.053Z,52.15
2022-07-30T04:09:01.034Z,52.39
2022-07-30T04:11:52.175Z,52.50
2022-07-30T04:14:49.596Z,52.53
2022-07-30T04:17:43.829Z,52.52
2022-07-30T04:20:38.529Z,52.41
2022-07-30T04:23:30.084Z,52.31
2022-07-30T04:26:21.564Z,52.35
2022-07-30T04:29:13.529Z,52.42
2022-07-30T04:32:10.933Z,52.48
2022-07-30T04:35:51.476Z,52.60
2022-07-30T04:38:46.306Z,52.56
2022-07-30T04:41:49.566Z,52.65
2022-07-30T04:44:59.336Z,52.79
2022-07-30T04:48:09.701Z,52.70
2022-07-30T04:51:11.391Z,52.68
2022-07-30T04:54:03.660Z,52.41
2022-07-30T04:56:57.106Z,52.29
2022-07-30T04:59:48.943Z,52.15
2022-07-30T05:02:41.576Z,52.04
2022-07-30T05:05:33.677Z,52.04
2022-07-30T05:08:23.748Z,51.94
2022-07-30T05:11:15.707Z,51.88
2022-07-30T05:14:07.145Z,51.80
2022-07-30T05:16:58.591Z,52.01
2022-07-30T05:19:49.327Z,51.87
2022-07-30T05:22:42.914Z,51.54
2022-07-30T05:25:41.765Z,51.14
2022-07-30T05:28:39.724Z,51.32
2022-07-30T05:31:32.867Z,51.24
2022-07-30T05:34:25.693Z,51.19
2022-07-30T05:37:17.824Z,51.29
2022-07-30T05:40:09.821Z,51.05
2022-07-30T05:43:25.936Z,51.12
2022-07-30T05:46:16.427Z,51.06
2022-07-30T05:49:07.635Z,51.03
2022-07-30T05:51:58.356Z,50.96
2022-07-30T05:54:49.816Z,51.00
2022-07-30T05:57:42.156Z,50.80
2022-07-30T06:00:34.206Z,50.78
2022-07-30T06:03:24.223Z,50.76
2022-07-30T06:06:40.543Z,50.66
2022-07-30T06:09:36.564Z,50.72
2022-07-30T06:12:28.100Z,50.91
2022-07-30T06:15:22.971Z,50.90
2022-07-30T06:18:16.331Z,50.99
2022-07-30T06:21:12.272Z,50.94
2022-07-30T06:24:30.769Z,51.01
2022-07-30T06:27:32.454Z,50.95
2022-07-30T06:30:30.311Z,50.76
2022-07-30T06:33:23.257Z,50.60
2022-07-30T06:36:14.970Z,50.68
2022-07-30T06:39:57.167Z,50.70
2022-07-30T06:42:48.695Z,50.40
2022-07-30T06:45:53.506Z,49.92
2022-07-30T06:48:47.373Z,49.88
2022-07-30T06:51:38.588Z,49.96
2022-07-30T06:54:29.316Z,50.14
2022-07-30T06:57:43.737Z,50.06
2022-07-30T07:00:54.211Z,49.83
2022-07-30T07:03:45.577Z,49.76
2022-07-30T07:06:37.268Z,49.11
2022-07-30T07:09:27.452Z,48.83
2022-07-30T07:12:43.226Z,48.83
2022-07-30T07:15:36.869Z,49.50
2022-07-30T07:18:29.272Z,49.88
2022-07-30T07:21:24.865Z,49.66
2022-07-30T07:24:17.197Z,49.81
2022-07-30T07:27:34.285Z,49.26
2022-07-30T07:30:25.543Z,48.95
2022-07-30T07:33:16.400Z,48.79
2022-07-30T07:36:08.164Z,48.57
2022-07-30T07:38:58.035Z,48.59
2022-07-30T07:41:49.552Z,48.25
2022-07-30T07:44:43.856Z,48.17
2022-07-30T07:47:43.634Z,48.17
2022-07-30T07:51:10.002Z,48.07
2022-07-30T07:54:20.569Z,47.61
2022-07-30T07:57:14.679Z,47.28
2022-07-30T08:00:09.445Z,47.33
2022-07-30T08:03:09.659Z,47.23
2022-07-30T08:06:06.193Z,47.24
2022-07-30T08:09:15.421Z,46.99
2022-07-30T08:12:29.346Z,46.89
2022-07-30T08:15:37.833Z,46.82
2022-07-30T08:18:31.267Z,46.99
2022-07-30T08:21:32.093Z,46.70
2022-07-30T08:24:22.137Z,46.98
2022-07-30T08:27:12.172Z,47.14
2022-07-30T08:30:03.676Z,47.62
2022-07-30T08:32:54.228Z,47.50
2022-07-30T08:35:49.155Z,47.44
2022-07-30T08:38:47.139Z,46.67
2022-07-30T08:41:38.785Z,45.50
2022-07-30T08:44:29.877Z,43.78
2022-07-30T08:47:24.909Z,42.04
2022-07-30T08:50:39.223Z,41.34
2022-07-30T08:54:01.280Z,38.88
2022-07-30T08:56:52.496Z,38.95
2022-07-30T08:59:52.825Z,37.70
2022-07-30T09:02:52.140Z,36.67
2022-07-30T09:05:44.585Z,36.76
2022-07-30T09:08:35.610Z,35.58
2022-07-30T09:11:26.179Z,35.68
2022-07-30T09:14:17.812Z,34.97
2022-07-30T09:17:20.402Z,34.42
2022-07-30T09:20:13.367Z,34.24
2022-07-30T09:23:06.124Z,34.39
2022-07-30T09:26:14.922Z,34.20
2022-07-30T09:29:25.720Z,34.18
2022-07-30T09:32:50.529Z,33.46
2022-07-30T09:36:16.358Z,33.45
2022-07-30T09:39:39.732Z,33.00
2022-07-30T09:42:46.827Z,32.54
2022-07-30T09:45:57.158Z,32.62
2022-07-30T09:48:47.948Z,31.98
2022-07-30T09:51:56.278Z,31.66
2022-07-30T09:54:53.663Z,31.79
2022-07-30T09:57:59.652Z,31.57
2022-07-30T10:00:58.487Z,31.29
2022-07-30T10:04:27.177Z,31.70
2022-07-30T10:07:26.310Z,31.38
2022-07-30T10:10:25.488Z,31.11
2022-07-30T10:13:20.629Z,31.07
2022-07-30T10:16:13.978Z,31.14
2022-07-30T10:19:07.160Z,30.92
2022-07-30T10:22:23.225Z,30.33
2022-07-30T10:25:49.724Z,30.23
2022-07-30T10:29:04.300Z,29.98
2022-07-30T10:31:54.711Z,28.10
2022-07-30T10:34:45.573Z,28.99
2022-07-30T10:37:37.272Z,29.45
2022-07-30T10:40:35.254Z,29.02
2022-07-30T10:43:56.494Z,28.07
2022-07-30T10:46:59.906Z,28.02
2022-07-30T10:50:15.573Z,28.00
2022-07-30T10:53:06.004Z,29.83
2022-07-30T10:56:14.280Z,30.93
2022-07-30T10:59:09.851Z,31.43
2022-07-30T11:02:12.994Z,31.36
2022-07-30T11:05:44.260Z,31.86
2022-07-30T11:08:42.909Z,30.23
2022-07-30T11:12:15.875Z,29.66
2022-07-30T11:15:06.758Z,28.98
2022-07-30T11:18:13.592Z,27.86
2022-07-30T11:21:22.563Z,27.01
2022-07-30T11:24:46.077Z,27.31
2022-07-30T11:27:41.805Z,27.00
2022-07-30T11:30:39.385Z,27.14
2022-07-30T11:33:32.020Z,27.09
2022-07-30T11:36:24.494Z,26.98
2022-07-30T11:39:15.622Z,27.23
2022-07-30T11:42:28.610Z,29.55
2022-07-30T11:45:29.933Z,30.70
2022-07-30T11:48:21.943Z,31.07
2022-07-30T11:51:12.361Z,31.61
2022-07-30T11:54:08.139Z,32.16
2022-07-30T11:57:04.050Z,32.49
2022-07-30T12:00:01.044Z,32.80
2022-07-30T12:02:52.811Z,32.67
2022-07-30T12:05:43.891Z,32.33
2022-07-30T12:08:43.335Z,32.85
2022-07-30T12:11:38.724Z,32.57
2022-07-30T12:14:38.737Z,32.62
2022-07-30T12:17:47.418Z,32.88
2022-07-30T12:20:39.661Z,33.46
2022-07-30T12:23:30.045Z,33.68
2022-07-30T12:26:32.095Z,33.88
2022-07-30T12:29:22.447Z,33.95
2022-07-30T12:32:15.322Z,33.86
2022-07-30T12:35:07.291Z,33.89
2022-07-30T12:38:08.036Z,34.12
2022-07-30T12:41:01.271Z,34.41
2022-07-30T12:43:53.515Z,34.75
2022-07-30T12:46:44.837Z,35.03
2022-07-30T12:49:36.533Z,34.97
2022-07-30T12:52:37.787Z,35.11
2022-07-30T12:55:34.989Z,35.18
2022-07-30T12:58:26.287Z,35.10
2022-07-30T13:01:17.638Z,35.18
2022-07-30T13:04:09.852Z,35.25
2022-07-30T13:07:11.101Z,35.77
2022-07-30T13:10:13.506Z,35.75
2022-07-30T13:13:05.667Z,35.75
2022-07-30T13:16:03.857Z,35.85
2022-07-30T13:18:56.127Z,36.14
2022-07-30T13:21:49.815Z,36.23
2022-07-30T13:24:40.105Z,36.41
2022-07-30T13:27:32.637Z,36.92
2022-07-30T13:30:23.021Z,37.32
2022-07-30T13:33:14.760Z,37.35
2022-07-30T13:36:06.046Z,37.59
2022-07-30T13:38:59.215Z,36.96
2022-07-30T13:41:50.153Z,36.21
2022-07-30T13:44:40.352Z,35.95
2022-07-30T13:47:32.159Z,35.80
2022-07-30T13:50:23.338Z,34.40
2022-07-30T13:53:14.283Z,35.11
2022-07-30T13:56:05.402Z,37.66
2022-07-30T13:59:02.678Z,37.70
2022-07-30T14:01:52.797Z,35.86
2022-07-30T14:04:43.132Z,35.00
2022-07-30T14:07:33.378Z,34.70
2022-07-30T14:10:23.979Z,35.05
2022-07-30T14:13:18.567Z,36.47
2022-07-30T14:16:28.823Z,37.23
2022-07-30T14:19:24.196Z,37.58
2022-07-30T14:22:14.419Z,36.46
2022-07-30T14:25:04.918Z,35.38
2022-07-30T14:27:56.951Z,34.97
2022-07-30T14:30:48.567Z,34.87
2022-07-30T14:33:39.325Z,34.72
2022-07-30T14:36:37.488Z,34.79
2022-07-30T14:39:28.097Z,34.81
2022-07-30T14:42:20.670Z,34.14
2022-07-30T14:45:12.397Z,34.66
2022-07-30T14:48:02.405Z,34.34
2022-07-30T14:51:13.003Z,35.07
2022-07-30T14:54:05.409Z,34.14
2022-07-30T14:56:58.424Z,33.52
2022-07-30T14:59:48.761Z,34.68
2022-07-30T15:02:41.207Z,36.48
2022-07-30T15:05:31.330Z,36.64
2022-07-30T15:08:21.721Z,37.37
2022-07-30T15:11:12.247Z,35.46
2022-07-30T15:14:03.051Z,35.70
2022-07-30T15:16:56.792Z,35.44
2022-07-30T15:19:51.652Z,34.89
2022-07-30T15:22:44.225Z,34.90
2022-07-30T15:25:35.803Z,34.47
2022-07-30T15:28:27.532Z,34.42
2022-07-30T15:31:19.847Z,34.99
2022-07-30T15:34:11.056Z,34.58
2022-07-30T15:37:00.928Z,36.06
2022-07-30T15:39:51.238Z,36.29
2022-07-30T15:42:42.835Z,36.74
2022-07-30T15:45:50.062Z,36.60
2022-07-30T15:48:45.089Z,36.16
2022-07-30T15:51:36.814Z,36.26
2022-07-30T15:54:28.852Z,36.18
2022-07-30T15:57:18.817Z,36.89
2022-07-30T16:00:11.054Z,36.54
2022-07-30T16:03:04.903Z,36.94
2022-07-30T16:05:54.594Z,36.84
2022-07-30T16:08:46.532Z,36.96
2022-07-30T16:11:36.702Z,37.78
2022-07-30T16:14:27.491Z,37.69
2022-07-30T16:17:18.623Z,36.92
2022-07-30T16:20:10.186Z,37.02
2022-07-30T16:23:01.556Z,37.23
2022-07-30T16:25:52.040Z,37.38
2022-07-30T16:28:42.873Z,38.53
2022-07-30T16:31:32.784Z,39.40
2022-07-30T16:34:26.639Z,39.28
2022-07-30T16:37:18.075Z,39.21
2022-07-30T16:40:09.799Z,38.99
2022-07-30T16:43:00.483Z,37.38
2022-07-30T16:46:08.375Z,39.03
2022-07-30T16:49:01.843Z,39.49
2022-07-30T16:51:53.006Z,38.69
2022-07-30T16:54:43.348Z,38.69
2022-07-30T16:57:33.919Z,37.78
2022-07-30T17:00:24.067Z,38.07
2022-07-30T17:03:19.930Z,38.52
2022-07-30T17:06:12.240Z,39.77
2022-07-30T17:09:02.843Z,40.50
2022-07-30T17:11:53.050Z,40.75
2022-07-30T17:14:43.326Z,40.96
2022-07-30T17:17:33.149Z,40.98
2022-07-30T17:20:22.987Z,41.14
2022-07-30T17:23:12.857Z,40.32
2022-07-30T17:26:02.399Z,39.38
2022-07-30T17:28:52.968Z,39.42
2022-07-30T17:31:44.496Z,39.36
2022-07-30T17:34:34.947Z,39.15
2022-07-30T17:37:25.187Z,38.81
2022-07-30T17:40:28.712Z,38.95
2022-07-30T17:43:20.046Z,39.00
2022-07-30T17:46:10.807Z,39.74
2022-07-30T17:49:01.434Z,39.76
2022-07-30T17:51:51.995Z,40.67
2022-07-30T17:54:41.586Z,40.48
2022-07-30T17:57:31.309Z,39.97
2022-07-30T18:00:21.507Z,39.63
2022-07-30T18:03:11.636Z,39.87
2022-07-30T18:06:01.919Z,39.07
2022-07-30T18:08:54.715Z,39.22
2022-07-30T18:11:45.547Z,38.98
2022-07-30T18:14:35.805Z,38.55
2022-07-30T18:17:26.015Z,38.13
2022-07-30T18:20:17.222Z,37.41
2022-07-30T18:23:14.045Z,37.03
2022-07-30T18:26:05.241Z,36.91
2022-07-30T18:28:56.104Z,36.73
2022-07-30T18:31:46.308Z,36.58
2022-07-30T18:34:36.373Z,36.38
2022-07-30T18:37:40.112Z,35.85
2022-07-30T18:40:32.301Z,35.43
2022-07-30T18:43:24.043Z,35.26
2022-07-30T18:46:14.113Z,35.03
2022-07-30T18:49:21.248Z,35.26
2022-07-30T18:52:13.623Z,35.07
2022-07-30T18:55:03.297Z,35.16
2022-07-30T18:57:53.262Z,35.19
2022-07-30T19:00:44.147Z,35.14
2022-07-30T19:03:34.862Z,34.96
2022-07-30T19:06:25.077Z,34.71
2022-07-30T19:09:17.686Z,33.78
2022-07-30T19:12:08.530Z,33.73
2022-07-30T19:14:58.437Z,33.89
2022-07-30T19:17:50.112Z,33.93
2022-07-30T19:20:39.645Z,33.84
2022-07-30T19:23:29.491Z,33.46
2022-07-30T19:26:21.890Z,33.46
2022-07-30T19:29:12.342Z,33.50
2022-07-30T19:32:03.187Z,33.29
2022-07-30T19:34:53.937Z,33.39
2022-07-30T19:37:44.191Z,33.02
2022-07-30T19:40:35.008Z,32.95
2022-07-30T19:43:30.057Z,32.72
2022-07-30T19:46:24.288Z,32.55
2022-07-30T19:49:14.554Z,32.31
2022-07-30T19:52:22.369Z,32.06
2022-07-30T19:55:17.246Z,31.71
2022-07-30T19:58:25.000Z,31.26
2022-07-30T20:01:15.849Z,31.50
2022-07-30T20:04:06.245Z,31.20
2022-07-30T20:06:57.490Z,30.92
2022-07-30T20:09:48.625Z,30.91
2022-07-30T20:12:39.454Z,30.93
2022-07-30T20:15:32.221Z,30.87
2022-07-30T20:18:29.088Z,30.79
2022-07-30T20:21:19.160Z,30.65
2022-07-30T20:24:09.583Z,30.75
2022-07-30T20:26:59.441Z,30.08
2022-07-30T20:29:51.270Z,30.25
2022-07-30T20:32:46.674Z,30.13
2022-07-30T20:35:37.322Z,29.90
2022-07-30T20:38:26.930Z,29.88
2022-07-30T20:41:16.762Z,29.69
2022-07-30T20:44:10.172Z,29.89
2022-07-30T20:47:08.052Z,29.86
2022-07-30T20:50:00.662Z,29.50
2022-07-30T20:52:50.351Z,29.55
2022-07-30T20:55:40.756Z,29.53
2022-07-30T20:58:32.006Z,29.50
2022-07-30T21:01:23.202Z,29.12
2022-07-30T21:04:25.571Z,29.46
2022-07-30T21:07:20.451Z,29.46
2022-07-30T21:10:12.262Z,29.31
2022-07-30T21:13:03.648Z,29.32
2022-07-30T21:16:02.388Z,29.03
2022-07-30T21:18:52.979Z,29.01
2022-07-30T21:21:48.134Z,29.08
2022-07-30T21:24:38.843Z,29.13
2022-07-30T21:27:30.971Z,29.17
2022-07-30T21:30:20.910Z,28.92
2022-07-30T21:33:14.653Z,28.74
2022-07-30T21:36:04.979Z,28.77
2022-07-30T21:39:03.359Z,28.64
2022-07-30T21:41:54.919Z,28.75
2022-07-30T21:44:46.079Z,28.76
2022-07-30T21:47:36.139Z,28.42
2022-07-30T21:50:27.779Z,28.29
2022-07-30T21:53:29.641Z,28.28
2022-07-30T21:56:29.114Z,28.36
2022-07-30T21:59:38.822Z,28.50
2022-07-30T22:02:29.828Z,28.31
2022-07-30T22:05:23.415Z,28.20
2022-07-30T22:08:29.598Z,28.46
2022-07-30T22:11:23.346Z,28.11
2022-07-30T22:14:13.945Z,28.17
2022-07-30T22:17:05.886Z,27.96
2022-07-30T22:20:14.317Z,27.94
2022-07-30T22:23:06.337Z,27.87
2022-07-30T22:26:00.305Z,27.74
2022-07-30T22:28:52.524Z,27.65
2022-07-30T22:31:44.506Z,27.57
2022-07-30T22:34:35.439Z,27.49
2022-07-30T22:37:27.022Z,27.14
2022-07-30T22:40:24.822Z,27.11
2022-07-30T22:43:16.314Z,26.98
2022-07-30T22:49:23.628Z,26.98
2022-07-30T22:52:28.393Z,26.78
2022-07-30T22:55:22.169Z,26.82
2022-07-30T22:58:12.535Z,26.98
2022-07-30T23:01:02.898Z,27.16
2022-07-30T23:03:53.519Z,26.92
2022-07-30T23:06:45.090Z,26.80
2022-07-30T23:09:49.241Z,26.53
2022-07-30T23:12:30.393Z,26.79
2022-07-30T23:12:44.256Z,26.44
2022-07-30T23:15:34.900Z,26.68
2022-07-30T23:18:26.834Z,26.75
2022-07-30T23:21:17.607Z,27.13
2022-07-30T23:24:08.201Z,27.09
2022-07-30T23:27:02.372Z,27.00
2022-07-30T23:29:52.635Z,27.10
2022-07-30T23:32:43.808Z,27.18
2022-07-30T23:35:33.618Z,27.03
2022-07-30T23:38:23.923Z,27.11
2022-07-30T23:41:14.590Z,27.09
2022-07-30T23:44:20.554Z,26.90
2022-07-30T23:47:11.467Z,26.83
2022-07-30T23:50:17.906Z,27.00
2022-07-30T23:53:08.271Z,27.04
2022-07-30T23:55:58.610Z,27.13
2022-07-30T23:58:49.277Z,26.95
